Time;durP1;ratioP1;P1;durP2;ratioP2;P2;SDS_P1;SDS_P2;PMS_P1;PMS_P2;Temp;Humidity;BMP_temperature;BMP_pressure;BME280_temperature;BME280_humidity;BME280_pressure;Samples;Min_cycle;Max_cycle;Signal;HPM_P1;HPM_P2
2021/05/16 00:00:31;;;;;;;0.90;0.50;;;;;;;10.23;100.00;96538.16;5001362;28;20065;-73
2021/05/16 00:02:58;;;;;;;0.77;0.50;;;;;;;10.23;100.00;96527.34;5023399;28;20408;-77
2021/05/16 00:05:26;;;;;;;2.83;0.80;;;;;;;10.23;100.00;96521.94;5023294;28;20045;-77
2021/05/16 00:07:53;;;;;;;0.70;0.50;;;;;;;10.20;100.00;96528.81;5019175;28;20049;-75
2021/05/16 00:10:24;;;;;;;0.80;0.40;;;;;;;10.14;100.00;96538.28;5015402;28;20408;-76
2021/05/16 00:12:51;;;;;;;1.73;0.60;;;;;;;10.10;100.00;96540.06;5020887;28;20053;-75
2021/05/16 00:15:19;;;;;;;1.77;0.60;;;;;;;9.99;100.00;96536.22;4999463;28;20387;-75
2021/05/16 00:17:46;;;;;;;1.15;0.57;;;;;;;9.85;100.00;96536.56;4983665;28;20049;-76
2021/05/16 00:20:16;;;;;;;2.08;0.50;;;;;;;9.70;100.00;96537.22;5022020;28;20048;-76
2021/05/16 00:22:43;;;;;;;2.10;0.60;;;;;;;9.46;100.00;96529.06;5010157;28;20058;-77
2021/05/16 00:25:14;;;;;;;1.15;0.50;;;;;;;9.31;100.00;96532.41;5024890;28;20042;-77
2021/05/16 00:27:43;;;;;;;0.82;0.50;;;;;;;9.25;100.00;96541.81;4988527;28;20057;-77
2021/05/16 00:30:13;;;;;;;0.75;0.60;;;;;;;9.21;100.00;96543.63;4984787;28;20045;-77
2021/05/16 00:32:40;;;;;;;2.22;0.75;;;;;;;9.17;100.00;96538.09;4985905;28;20057;-77
2021/05/16 00:35:08;;;;;;;1.30;0.60;;;;;;;9.20;100.00;96532.03;4978037;28;20049;-76
2021/05/16 00:37:35;;;;;;;1.20;0.63;;;;;;;9.20;100.00;96544.72;4979657;28;20046;-77
2021/05/16 00:40:04;;;;;;;1.63;0.63;;;;;;;9.17;100.00;96540.78;4990153;28;20042;-77
2021/05/16 00:42:31;;;;;;;0.88;0.60;;;;;;;9.13;100.00;96539.09;4994766;28;20170;-78
2021/05/16 00:45:01;;;;;;;0.80;0.50;;;;;;;9.14;100.00;96538.75;4978784;28;20096;-78
2021/05/16 00:47:28;;;;;;;1.27;0.45;;;;;;;9.14;100.00;96537.94;4995481;28;20070;-78
2021/05/16 00:49:55;;;;;;;0.98;0.50;;;;;;;9.18;100.00;96550.47;4980324;28;20104;-78
2021/05/16 00:52:24;;;;;;;0.65;0.50;;;;;;;9.18;100.00;96545.06;4978348;28;20062;-79
2021/05/16 00:54:53;;;;;;;2.13;0.70;;;;;;;9.18;100.00;96539.69;4996513;28;20046;-78
2021/05/16 00:57:20;;;;;;;1.48;0.70;;;;;;;9.14;100.00;96546.03;5004293;28;20133;-77
2021/05/16 00:59:47;;;;;;;1.80;0.57;;;;;;;9.15;100.00;96553.84;4960738;28;20046;-78
2021/05/16 01:02:14;;;;;;;4.35;0.70;;;;;;;9.11;100.00;96544.03;4977098;28;20077;-79
2021/05/16 01:04:41;;;;;;;1.15;0.60;;;;;;;9.17;100.00;96554.28;4997289;28;20050;-78
2021/05/16 01:07:08;;;;;;;1.23;0.60;;;;;;;9.14;100.00;96549.53;4987869;28;20050;-77
2021/05/16 01:09:34;;;;;;;0.75;0.50;;;;;;;9.16;100.00;96555.41;4985613;28;20711;-79
2021/05/16 01:12:05;;;;;;;2.25;0.50;;;;;;;9.19;100.00;96554.72;4985467;28;20571;-79
2021/05/16 01:14:34;;;;;;;7.65;0.77;;;;;;;9.20;100.00;96555.53;5000930;28;20069;-79
2021/05/16 01:17:05;;;;;;;1.20;0.60;;;;;;;9.18;100.00;96552.38;5000167;28;20429;-79
2021/05/16 01:19:33;;;;;;;2.38;0.60;;;;;;;9.23;100.00;96557.56;4998048;28;20049;-78
2021/05/16 01:22:00;;;;;;;2.63;0.80;;;;;;;9.23;100.00;96554.88;5007562;28;20048;-78
2021/05/16 01:24:29;;;;;;;1.98;0.80;;;;;;;9.20;100.00;96553.63;5030484;28;20042;-79
2021/05/16 01:26:58;;;;;;;0.90;0.60;;;;;;;9.18;100.00;96550.47;5004951;28;20037;-79
2021/05/16 01:29:28;;;;;;;1.20;0.63;;;;;;;9.17;100.00;96558.88;5018115;28;20042;-78
2021/05/16 01:31:54;;;;;;;1.77;0.90;;;;;;;9.17;100.00;96564.28;5018830;28;20042;-78
2021/05/16 01:34:22;;;;;;;0.90;0.73;;;;;;;9.13;100.00;96566.09;4988405;28;20141;-78
2021/05/16 01:36:49;;;;;;;2.58;1.13;;;;;;;9.00;100.00;96564.44;4998239;28;20053;-78
2021/05/16 01:39:15;;;;;;;3.00;0.80;;;;;;;9.01;100.00;96550.59;4995352;28;20527;-79
2021/05/16 01:41:42;;;;;;;2.05;1.00;;;;;;;9.04;100.00;96557.25;4979447;28;20046;-77
2021/05/16 01:44:11;;;;;;;2.30;1.00;;;;;;;9.04;100.00;96560.75;4996038;28;20049;-78
2021/05/16 01:46:39;;;;;;;2.38;1.25;;;;;;;9.03;100.00;96558.41;4978726;28;20054;-77
2021/05/16 01:49:06;;;;;;;1.27;0.90;;;;;;;9.09;100.00;96563.25;4979643;28;20117;-78
2021/05/16 01:51:32;;;;;;;2.35;1.00;;;;;;;9.10;100.00;96562.13;4984861;28;20050;-78
2021/05/16 01:53:59;;;;;;;1.48;0.80;;;;;;;9.04;100.00;96554.56;5008477;28;20042;-77
2021/05/16 01:56:28;;;;;;;3.25;0.93;;;;;;;9.09;100.00;96562.44;4995428;28;20042;-78
2021/05/16 01:58:56;;;;;;;1.88;0.90;;;;;;;9.09;100.00;96567.84;4993836;28;20046;-77
2021/05/16 02:01:24;;;;;;;1.50;0.85;;;;;;;9.00;100.00;96565.25;4977415;28;20528;-77
2021/05/16 02:03:51;;;;;;;1.25;0.82;;;;;;;8.93;100.00;96556.09;4993682;28;20077;-78
2021/05/16 02:06:18;;;;;;;2.35;1.08;;;;;;;8.95;100.00;96570.84;4993053;28;20053;-78
2021/05/16 02:08:45;;;;;;;2.30;1.20;;;;;;;8.92;100.00;96574.19;4992888;28;20050;-78
2021/05/16 02:11:12;;;;;;;2.33;1.10;;;;;;;8.91;100.00;96579.91;4976224;28;20078;-77
2021/05/16 02:13:40;;;;;;;2.00;1.27;;;;;;;8.93;100.00;96570.38;4992349;28;20096;-78
2021/05/16 02:16:10;;;;;;;2.15;1.17;;;;;;;8.88;100.00;96565.16;4992029;28;20050;-79
2021/05/16 02:18:38;;;;;;;3.17;1.33;;;;;;;8.88;100.00;96578.66;4993182;28;20081;-78
2021/05/16 02:21:09;;;;;;;1.42;0.88;;;;;;;8.80;100.00;96586.84;4994598;28;20058;-78
2021/05/16 02:23:41;;;;;;;5.07;1.30;;;;;;;8.77;100.00;96582.88;4997772;28;20130;-78
2021/05/16 02:26:09;;;;;;;3.40;1.40;;;;;;;8.70;100.00;96579.91;4994445;28;20046;-77
2021/05/16 02:28:36;;;;;;;1.35;1.05;;;;;;;8.69;100.00;96589.94;5015660;28;20479;-78
2021/05/16 02:31:13;;;;;;;1.70;0.95;;;;;;;8.70;100.00;96585.28;5031570;28;20194;-78
2021/05/16 02:33:39;;;;;;;3.30;1.00;;;;;;;8.64;100.00;96576.63;5026024;28;20046;-77
2021/05/16 02:36:08;;;;;;;1.27;0.90;;;;;;;8.54;100.00;96573.53;5010891;28;20116;-77
2021/05/16 02:38:35;;;;;;;7.13;1.20;;;;;;;8.59;100.00;96582.19;5013746;28;20049;-80
2021/05/16 02:41:01;;;;;;;4.80;1.10;;;;;;;8.57;100.00;96592.53;5015526;28;20489;-79
2021/05/16 02:43:28;;;;;;;5.32;1.23;;;;;;;8.57;100.00;96586.34;5018232;28;20115;-78
2021/05/16 02:45:54;;;;;;;3.42;0.90;;;;;;;8.58;100.00;96579.84;5016072;28;20046;-78
2021/05/16 02:48:21;;;;;;;3.28;1.42;;;;;;;8.52;100.00;96587.31;5020375;28;20068;-81
2021/05/16 02:50:48;;;;;;;3.42;0.95;;;;;;;8.53;100.00;96583.53;5005160;28;20054;-79
2021/05/16 02:53:20;;;;;;;5.70;1.13;;;;;;;8.51;100.00;96583.06;5012423;28;20048;-82
2021/05/16 02:55:47;;;;;;;3.15;1.00;;;;;;;8.49;100.00;96585.28;4996415;28;20533;-78
2021/05/16 02:58:14;;;;;;;4.20;1.00;;;;;;;8.52;100.00;96584.63;5015748;28;20046;-79
2021/05/16 03:00:40;;;;;;;2.70;0.93;;;;;;;8.55;100.00;96583.19;4994284;28;20057;-77
2021/05/16 03:03:10;;;;;;;1.88;0.80;;;;;;;8.57;100.00;96584.44;4993631;28;20049;-78
2021/05/16 03:05:36;;;;;;;1.90;0.80;;;;;;;8.66;100.00;96576.28;4993666;28;20173;-78
2021/05/16 03:08:03;;;;;;;2.55;1.00;;;;;;;8.78;100.00;96585.25;4994678;28;20049;-79
2021/05/16 03:10:30;;;;;;;2.40;0.70;;;;;;;8.82;100.00;96574.59;4977722;28;20229;-80
2021/05/16 03:12:56;;;;;;;7.80;1.00;;;;;;;8.94;100.00;96582.75;5011963;28;20448;-78
2021/05/16 03:15:23;;;;;;;3.22;1.30;;;;;;;8.96;100.00;96585.91;5002639;28;20041;-79
2021/05/16 03:17:50;;;;;;;1.42;0.80;;;;;;;9.04;100.00;96579.66;5031381;28;20049;-77
2021/05/16 03:20:16;;;;;;;3.67;0.95;;;;;;;9.09;100.00;96581.34;5030777;28;20373;-78
2021/05/16 03:22:43;;;;;;;2.97;0.90;;;;;;;9.11;100.00;96574.50;5014105;28;20049;-77
2021/05/16 03:25:11;;;;;;;3.65;0.77;;;;;;;9.19;100.00;96570.13;5013397;28;20052;-78
2021/05/16 03:27:37;;;;;;;3.03;0.90;;;;;;;9.23;100.00;96576.47;5009360;28;20468;-78
2021/05/16 03:30:07;;;;;;;2.22;0.80;;;;;;;9.20;100.00;96569.81;4977232;28;20046;-77
2021/05/16 03:32:34;;;;;;;2.55;0.70;;;;;;;9.25;100.00;96566.13;4993839;28;20080;-77
2021/05/16 03:35:00;;;;;;;3.90;0.80;;;;;;;9.23;100.00;96571.06;4993616;28;20046;-78
2021/05/16 03:37:27;;;;;;;2.70;0.70;;;;;;;9.27;100.00;96563.88;4994938;28;20060;-77
2021/05/16 03:39:53;;;;;;;3.53;0.93;;;;;;;9.23;100.00;96562.97;5011276;28;20504;-80
2021/05/16 03:42:20;;;;;;;3.35;0.80;;;;;;;9.32;100.00;96580.66;4980205;28;20046;-78
2021/05/16 03:44:47;;;;;;;3.72;0.70;;;;;;;9.40;100.00;96576.31;5013812;28;20049;-79
2021/05/16 03:47:13;;;;;;;1.05;0.52;;;;;;;9.40;100.00;96581.69;5025811;28;20073;-78
2021/05/16 03:49:40;;;;;;;2.60;0.63;;;;;;;9.43;100.00;96572.16;4993631;28;20082;-80
2021/05/16 03:52:09;;;;;;;3.72;0.65;;;;;;;9.45;100.00;96581.50;4996063;28;20061;-79
2021/05/16 03:54:36;;;;;;;4.82;1.00;;;;;;;9.48;100.00;96580.03;4994889;28;20046;-79
2021/05/16 03:57:03;;;;;;;6.55;0.80;;;;;;;9.42;100.00;96590.25;5012334;28;20529;-79
2021/05/16 03:59:30;;;;;;;1.98;0.60;;;;;;;9.29;100.00;96588.66;4995334;28;20104;-79
2021/05/16 04:01:56;;;;;;;2.70;0.70;;;;;;;9.29;100.00;96594.81;5011202;28;20077;-79
2021/05/16 04:04:23;;;;;;;5.18;1.15;;;;;;;9.24;100.00;96589.63;5014834;28;20081;-79
2021/05/16 04:06:50;;;;;;;5.28;1.13;;;;;;;9.24;100.00;96591.53;5000225;28;20045;-80
2021/05/16 04:09:17;;;;;;;5.35;1.02;;;;;;;9.23;100.00;96587.28;5014760;28;20497;-80
2021/05/16 04:11:44;;;;;;;6.68;1.10;;;;;;;9.24;100.00;96594.22;5012333;28;20389;-79
2021/05/16 04:14:11;;;;;;;4.10;1.13;;;;;;;9.18;100.00;96592.88;4995758;28;20420;-78
2021/05/16 04:16:38;;;;;;;6.30;0.90;;;;;;;9.20;100.00;96596.81;5009850;28;20088;-80
2021/05/16 04:19:05;;;;;;;4.25;1.00;;;;;;;9.21;100.00;96600.31;4998315;28;20073;-78
2021/05/16 04:21:31;;;;;;;5.78;1.27;;;;;;;9.20;100.00;96590.63;4995787;28;20159;-78
2021/05/16 04:23:58;;;;;;;7.95;1.20;;;;;;;9.17;100.00;96592.09;5012570;28;20050;-79
2021/05/16 04:26:24;;;;;;;5.88;0.93;;;;;;;9.17;100.00;96597.47;4995028;28;20046;-78
2021/05/16 04:28:51;;;;;;;8.35;1.20;;;;;;;9.18;100.00;96603.69;4978817;28;20042;-79
2021/05/16 04:31:18;;;;;;;2.42;1.00;;;;;;;9.23;100.00;96620.47;5012688;28;20049;-79
2021/05/16 04:33:44;;;;;;;4.80;1.27;;;;;;;9.18;100.00;96617.97;4998162;28;20100;-79
2021/05/16 04:36:11;;;;;;;5.65;1.10;;;;;;;9.15;100.00;96620.53;5012298;28;20501;-79
2021/05/16 04:38:38;;;;;;;3.50;1.10;;;;;;;9.08;100.00;96620.28;4996561;28;20053;-78
2021/05/16 04:41:05;;;;;;;2.90;1.17;;;;;;;9.08;100.00;96622.97;4996469;28;20092;-80
2021/05/16 04:43:31;;;;;;;5.10;1.02;;;;;;;8.98;100.00;96637.63;4988322;28;20050;-79
2021/05/16 04:45:58;;;;;;;7.97;1.30;;;;;;;8.90;100.00;96635.03;5000800;28;20038;-79
2021/05/16 04:48:24;;;;;;;5.47;1.70;;;;;;;8.87;100.00;96633.75;4977850;28;20066;-78
2021/05/16 04:50:52;;;;;;;5.82;1.50;;;;;;;8.85;100.00;96637.91;5010044;28;20531;-80
2021/05/16 04:53:21;;;;;;;6.20;1.45;;;;;;;8.82;100.00;96630.47;5011377;28;20050;-79
2021/05/16 04:55:48;;;;;;;10.45;2.05;;;;;;;8.80;100.00;96640.81;5004906;28;20109;-79
2021/05/16 04:58:14;;;;;;;8.38;1.67;;;;;;;8.76;100.00;96635.25;4986992;28;20037;-77
2021/05/16 05:00:41;;;;;;;8.38;1.58;;;;;;;8.87;100.00;96646.47;5010428;28;20073;-80
2021/05/16 05:03:08;;;;;;;12.73;1.85;;;;;;;8.91;100.00;96633.88;5011917;28;20145;-80
2021/05/16 05:05:34;;;;;;;7.75;1.55;;;;;;;8.99;100.00;96633.03;5013315;28;20425;-79
2021/05/16 05:08:01;;;;;;;7.75;1.60;;;;;;;9.02;100.00;96643.19;4997588;28;20053;-79
2021/05/16 05:10:31;;;;;;;9.15;1.40;;;;;;;8.94;100.00;96646.72;5013227;28;20575;-79
2021/05/16 05:12:57;;;;;;;6.43;1.52;;;;;;;8.88;100.00;96639.97;5012199;28;20065;-79
2021/05/16 05:15:24;;;;;;;7.45;1.63;;;;;;;8.78;100.00;96635.72;4977285;28;20509;-79
2021/05/16 05:17:51;;;;;;;8.68;1.98;;;;;;;8.79;100.00;96648.09;4994557;28;20045;-79
2021/05/16 05:20:17;;;;;;;5.53;1.30;;;;;;;8.98;100.00;96648.44;4995617;28;20054;-79
2021/05/16 05:22:44;;;;;;;10.15;1.92;;;;;;;9.18;100.00;96641.47;4986286;28;20050;-80
2021/05/16 05:25:11;;;;;;;5.88;1.48;;;;;;;9.32;100.00;96642.78;5018338;28;20061;-82
2021/05/16 05:27:37;;;;;;;8.23;1.40;;;;;;;9.52;100.00;96629.59;4996427;28;20041;-81
2021/05/16 05:30:05;;;;;;;13.68;1.60;;;;;;;9.59;100.00;96643.34;5015339;28;20078;-80
2021/05/16 05:32:31;;;;;;;7.28;1.27;;;;;;;9.68;100.00;96634.03;4983730;28;20050;-79
2021/05/16 05:34:58;;;;;;;7.03;1.52;;;;;;;9.87;100.00;96639.72;5015009;28;20501;-80
2021/05/16 05:37:24;;;;;;;7.70;1.45;;;;;;;9.91;100.00;96621.69;4998897;28;20050;-78
2021/05/16 05:39:51;;;;;;;5.80;1.33;;;;;;;10.01;100.00;96631.31;5024359;28;20094;-80
2021/05/16 05:42:18;;;;;;;8.85;1.75;;;;;;;10.09;100.00;96626.94;5022469;28;20391;-77
2021/05/16 05:44:45;;;;;;;5.68;1.33;;;;;;;10.34;100.00;96634.75;5001992;28;20054;-81
2021/05/16 05:47:12;;;;;;;7.07;1.30;;;;;;;10.43;100.00;96627.31;5000972;28;20057;-81
2021/05/16 05:49:38;;;;;;;4.93;1.42;;;;;;;10.38;100.00;96632.16;5021822;28;20540;-81
2021/05/16 05:52:05;;;;;;;9.43;1.35;;;;;;;10.35;100.00;96622.78;5017146;28;20033;-78
2021/05/16 05:54:33;;;;;;;5.15;1.20;;;;;;;10.48;100.00;96631.69;5014267;28;20101;-80
2021/05/16 05:57:00;;;;;;;10.20;1.58;;;;;;;10.45;100.00;96624.28;5015588;28;20045;-78
2021/05/16 05:59:26;;;;;;;4.35;1.08;;;;;;;10.56;100.00;96630.81;5014086;28;20053;-77
2021/05/16 06:01:53;;;;;;;4.53;1.30;;;;;;;10.51;100.00;96626.41;5014951;28;20505;-77
2021/05/16 06:04:20;;;;;;;5.57;1.45;;;;;;;10.55;100.00;96629.25;5013604;28;20129;-77
2021/05/16 06:06:47;;;;;;;8.10;1.50;;;;;;;10.75;100.00;96624.81;4995048;28;20489;-78
2021/05/16 06:09:13;;;;;;;6.72;1.23;;;;;;;10.83;100.00;96621.19;5013293;28;20056;-78
2021/05/16 06:11:42;;;;;;;9.82;1.35;;;;;;;10.81;100.00;96637.81;4996620;28;20038;-79
2021/05/16 06:14:09;;;;;;;9.07;1.58;;;;;;;10.93;100.00;96626.16;4996430;28;20113;-79
2021/05/16 06:16:36;;;;;;;11.50;1.65;;;;;;;11.06;100.00;96633.91;5013158;28;20076;-79
2021/05/16 06:19:03;;;;;;;5.93;1.42;;;;;;;10.93;100.00;96640.47;4987691;28;20048;-79
2021/05/16 06:21:30;;;;;;;7.97;1.50;;;;;;;10.79;100.00;96642.75;5011013;28;20088;-79
2021/05/16 06:24:08;;;;;;;5.47;1.25;;;;;;;10.60;100.00;96639.84;4991499;28;20050;-80
2021/05/16 06:26:42;;;;;;;7.97;1.40;;;;;;;10.60;100.00;96642.53;5008654;28;20053;-78
2021/05/16 06:29:13;;;;;;;6.53;1.40;;;;;;;10.69;100.00;96639.69;4976855;28;20049;-79
2021/05/16 06:31:42;;;;;;;13.30;1.60;;;;;;;10.89;100.00;96647.69;4994295;28;20057;-79
2021/05/16 06:34:11;;;;;;;10.57;1.63;;;;;;;10.83;100.00;96650.97;4979268;28;20501;-79
2021/05/16 06:36:38;;;;;;;4.47;1.33;;;;;;;11.02;100.00;96651.19;4991113;28;20054;-78
2021/05/16 06:39:06;;;;;;;7.13;1.30;;;;;;;11.09;100.00;96645.97;4992958;28;20652;-77
2021/05/16 06:41:33;;;;;;;4.30;1.13;;;;;;;10.97;100.00;96637.88;5010721;28;20046;-78
2021/05/16 06:44:00;;;;;;;6.55;1.23;;;;;;;10.98;100.00;96634.81;5009001;28;20386;-77
2021/05/16 06:46:28;;;;;;;5.97;1.50;;;;;;;11.23;100.00;96635.56;4974523;28;20041;-77
2021/05/16 06:48:55;;;;;;;10.52;2.22;;;;;;;11.26;100.00;96638.38;4989346;28;20045;-77
2021/05/16 06:51:22;;;;;;;7.80;1.27;;;;;;;11.22;100.00;96617.72;5008996;28;20126;-79
2021/05/16 06:53:56;;;;;;;8.02;1.95;;;;;;;11.25;100.00;96636.00;4978175;28;20289;-78
2021/05/16 06:56:24;;;;;;;8.63;1.67;;;;;;;11.21;100.00;96624.28;4993161;28;20493;-78
2021/05/16 06:58:50;;;;;;;6.40;1.48;;;;;;;11.24;100.00;96635.22;4989095;28;20038;-77
2021/05/16 07:01:17;;;;;;;5.20;1.10;;;;;;;11.36;100.00;96637.09;5007855;28;20057;-78
2021/05/16 07:03:44;;;;;;;6.00;1.30;;;;;;;11.42;100.00;96624.09;4991017;28;20310;-79
2021/05/16 07:06:11;;;;;;;5.93;1.50;;;;;;;11.46;100.00;96625.75;4992700;28;20050;-78
2021/05/16 07:08:38;;;;;;;9.57;1.70;;;;;;;11.56;100.00;96613.66;5020071;28;20056;-78
2021/05/16 07:11:05;;;;;;;7.15;1.45;;;;;;;11.79;100.00;96618.19;5021265;28;20068;-78
2021/05/16 07:13:32;;;;;;;5.88;1.30;;;;;;;11.99;100.00;96624.53;5010478;28;20054;-78
2021/05/16 07:15:59;;;;;;;7.38;1.60;;;;;;;11.95;100.00;96620.91;4991762;28;20049;-78
2021/05/16 07:18:32;;;;;;;4.85;1.10;;;;;;;11.89;100.00;96614.19;5022540;28;20076;-78
2021/05/16 07:20:59;;;;;;;6.00;1.75;;;;;;;12.15;100.00;96619.91;5021619;28;20069;-78
2021/05/16 07:23:26;;;;;;;5.38;1.10;;;;;;;11.95;100.00;96601.16;4998547;28;20367;-79
2021/05/16 07:25:53;;;;;;;5.68;1.15;;;;;;;12.27;100.00;96608.97;5014347;28;20424;-79
2021/05/16 07:28:20;;;;;;;8.10;1.30;;;;;;;12.39;100.00;96608.88;5001090;28;20042;-76
2021/05/16 07:30:47;;;;;;;5.32;1.02;;;;;;;12.42;100.00;96612.81;5009090;28;20046;-78
2021/05/16 07:33:13;;;;;;;9.13;1.48;;;;;;;12.54;100.00;96610.00;5019190;28;20715;-75
2021/05/16 07:35:41;;;;;;;5.68;1.27;;;;;;;12.63;100.00;96618.75;4991279;28;20046;-76
2021/05/16 07:38:08;;;;;;;5.72;1.17;;;;;;;12.89;100.00;96624.41;4990539;28;20050;-76
2021/05/16 07:40:37;;;;;;;10.75;1.25;;;;;;;12.59;100.00;96617.88;5006826;28;20045;-75
2021/05/16 07:43:04;;;;;;;4.80;1.33;;;;;;;12.77;100.00;96615.56;5007484;28;20529;-77
2021/05/16 07:45:31;;;;;;;8.15;1.30;;;;;;;12.56;100.00;96610.44;5009010;28;20046;-78
2021/05/16 07:47:58;;;;;;;6.95;1.20;;;;;;;12.41;100.00;96612.00;4991363;28;20276;-78
2021/05/16 07:50:25;;;;;;;6.25;1.20;;;;;;;12.81;100.00;96614.50;5014387;28;20046;-78
2021/05/16 07:52:51;;;;;;;10.95;1.42;;;;;;;13.01;100.00;96607.97;5011342;28;20045;-79
2021/05/16 07:55:18;;;;;;;5.85;1.23;;;;;;;12.89;100.00;96604.59;4991206;28;20046;-78
2021/05/16 07:57:44;;;;;;;8.30;1.50;;;;;;;13.02;100.00;96606.03;4992239;28;20061;-79
2021/05/16 08:00:12;;;;;;;5.10;1.30;;;;;;;13.03;100.00;96600.25;4991904;28;20068;-78
2021/05/16 08:02:43;;;;;;;5.95;1.27;;;;;;;13.16;100.00;96602.88;4991895;28;20052;-79
2021/05/16 08:05:12;;;;;;;4.10;1.52;;;;;;;13.05;100.00;96597.97;5010521;28;20046;-80
2021/05/16 08:07:39;;;;;;;6.88;1.25;;;;;;;13.15;100.00;96585.78;5013163;28;20042;-79
2021/05/16 08:10:07;;;;;;;7.53;1.52;;;;;;;13.32;100.00;96598.94;4994818;28;20058;-78
2021/05/16 08:12:34;;;;;;;6.40;1.48;;;;;;;13.29;100.00;96607.03;5011905;28;20286;-80
2021/05/16 08:15:00;;;;;;;6.05;1.23;;;;;;;13.18;100.00;96606.81;4992602;28;20053;-79
2021/05/16 08:17:27;;;;;;;6.60;1.45;;;;;;;13.24;100.00;96599.94;4996379;28;20061;-79
2021/05/16 08:19:53;;;;;;;10.23;1.60;;;;;;;13.24;100.00;96601.88;5005056;28;20244;-77
2021/05/16 08:22:23;;;;;;;6.30;1.20;;;;;;;13.45;100.00;96597.66;5008062;28;20413;-78
2021/05/16 08:24:50;;;;;;;6.18;1.52;;;;;;;13.61;100.00;96598.38;4999001;28;20077;-78
2021/05/16 08:27:16;;;;;;;7.45;1.30;;;;;;;13.63;100.00;96596.06;5011753;28;20049;-78
2021/05/16 08:29:50;;;;;;;3.70;1.10;;;;;;;13.54;100.00;96592.00;4994498;28;20049;-78
2021/05/16 08:32:18;;;;;;;7.90;1.60;;;;;;;13.51;100.00;96598.16;5008412;28;20045;-78
2021/05/16 08:34:46;;;;;;;4.65;1.00;;;;;;;13.42;100.00;96603.03;4974456;28;20413;-79
2021/05/16 08:37:13;;;;;;;6.13;1.00;;;;;;;13.53;100.00;96604.81;5009104;28;20050;-80
2021/05/16 08:39:40;;;;;;;7.40;1.33;;;;;;;13.62;100.00;96601.88;5009481;28;20505;-79
2021/05/16 08:42:07;;;;;;;6.00;1.42;;;;;;;13.51;100.00;96607.09;4975782;28;20080;-79
2021/05/16 08:44:35;;;;;;;4.97;1.42;;;;;;;13.72;100.00;96607.53;5010951;28;20574;-79
2021/05/16 08:47:06;;;;;;;6.57;1.65;;;;;;;14.03;100.00;96601.09;4993351;28;20058;-79
2021/05/16 08:49:35;;;;;;;4.15;1.25;;;;;;;14.35;100.00;96593.47;4984722;28;20425;-80
2021/05/16 08:52:03;;;;;;;7.47;1.30;;;;;;;14.44;100.00;96602.19;5013752;28;20034;-78
2021/05/16 08:54:30;;;;;;;8.27;1.40;;;;;;;14.22;100.00;96602.97;4975447;28;20243;-79
2021/05/16 08:56:57;;;;;;;6.95;1.23;;;;;;;14.70;100.00;96617.78;5008950;28;20053;-76
2021/05/16 08:59:24;;;;;;;7.53;1.63;;;;;;;14.63;100.00;96612.22;5009039;28;20050;-79
2021/05/16 09:01:53;;;;;;;11.52;1.30;;;;;;;14.92;100.00;96606.81;4992683;28;20591;-78
2021/05/16 09:04:23;;;;;;;4.90;1.27;;;;;;;14.86;100.00;96602.06;4995416;28;20065;-78
2021/05/16 09:06:55;;;;;;;7.47;1.25;;;;;;;15.08;100.00;96617.56;5017434;28;20045;-79
2021/05/16 09:09:27;;;;;;;9.57;1.42;;;;;;;14.68;100.00;96614.66;4986951;28;20467;-79
2021/05/16 09:11:58;;;;;;;11.27;1.70;;;;;;;15.16;100.00;96616.50;4977894;28;20264;-78
2021/05/16 09:14:45;;;;;;;7.57;1.30;;;;;;;15.43;100.00;96609.09;5011964;28;20326;-79
2021/05/16 09:17:35;;;;;;;7.43;1.02;;;;;;;15.28;100.00;96607.34;5012649;28;20041;-79
2021/05/16 09:20:11;;;;;;;7.22;1.35;;;;;;;15.40;100.00;96594.25;4994866;28;20549;-78
2021/05/16 09:22:37;;;;;;;16.80;1.50;;;;;;;15.52;100.00;96612.31;4993270;28;20046;-78
2021/05/16 09:25:09;;;;;;;9.90;2.30;;;;;;;15.89;100.00;96624.06;4958908;28;20054;-77
2021/05/16 09:27:37;;;;;;;8.73;1.50;;;;;;;15.80;100.00;96614.59;4978748;28;20046;-80
2021/05/16 09:30:16;;;;;;;10.15;1.65;;;;;;;15.03;100.00;96617.88;4994870;28;20593;-79
2021/05/16 09:32:48;;;;;;;5.95;1.30;;;;;;;15.23;100.00;96622.06;5012891;28;20041;-78
2021/05/16 09:35:17;;;;;;;5.85;1.27;;;;;;;15.78;100.00;96614.19;4995555;28;20061;-78
2021/05/16 09:38:05;;;;;;;8.95;1.48;;;;;;;15.37;100.00;96621.47;4998257;28;20089;-78
2021/05/16 09:40:53;;;;;;;5.88;1.27;;;;;;;15.91;100.00;96629.94;5010940;28;20277;-79
2021/05/16 09:43:28;;;;;;;9.77;1.38;;;;;;;16.73;100.00;96618.63;4994822;28;20129;-78
2021/05/16 09:46:06;;;;;;;5.63;1.38;;;;;;;17.33;100.00;96629.97;4997371;28;20045;-77
2021/05/16 09:48:42;;;;;;;6.80;1.23;;;;;;;16.16;100.00;96616.53;4991788;28;20073;-77
2021/05/16 09:51:09;;;;;;;4.85;1.33;;;;;;;15.42;100.00;96624.66;4986280;28;20070;-77
2021/05/16 09:53:49;;;;;;;5.38;1.23;;;;;;;14.97;100.00;96620.13;4978866;28;20128;-78
2021/05/16 09:56:20;;;;;;;8.20;1.45;;;;;;;14.80;100.00;96611.72;5006837;28;20065;-77
2021/05/16 09:58:50;;;;;;;5.85;1.40;;;;;;;14.74;100.00;96626.78;4994785;28;20117;-79
2021/05/16 10:01:18;;;;;;;5.43;1.40;;;;;;;14.76;100.00;96624.50;4978649;28;20054;-79
2021/05/16 10:03:49;;;;;;;8.60;1.25;;;;;;;14.58;100.00;96618.00;5018997;28;20057;-78
2021/05/16 10:06:17;;;;;;;6.80;1.63;;;;;;;14.43;100.00;96616.97;5005308;28;20153;-78
2021/05/16 10:08:48;;;;;;;9.75;1.77;;;;;;;14.35;100.00;96624.22;5012445;28;20505;-78
2021/05/16 10:11:17;;;;;;;6.80;1.50;;;;;;;14.44;100.00;96613.09;5010591;28;20050;-79
2021/05/16 10:13:49;;;;;;;5.13;1.00;;;;;;;14.78;100.00;96625.72;5009038;28;20056;-79
2021/05/16 10:16:17;;;;;;;6.22;1.17;;;;;;;14.80;100.00;96622.59;5010125;28;20053;-79
2021/05/16 10:18:46;;;;;;;4.75;1.10;;;;;;;14.83;100.00;96619.94;5010788;28;20755;-79
2021/05/16 10:21:13;;;;;;;4.75;1.23;;;;;;;14.63;100.00;96620.41;5010364;28;20045;-77
2021/05/16 10:23:41;;;;;;;9.52;1.50;;;;;;;14.73;100.00;96609.69;5009494;28;20072;-77
2021/05/16 10:26:25;;;;;;;12.18;1.23;;;;;;;14.56;100.00;96618.34;4974997;28;20062;-79
2021/05/16 10:28:59;;;;;;;8.20;1.45;;;;;;;14.54;100.00;96617.13;5008082;28;20399;-76
2021/05/16 10:31:51;;;;;;;6.25;1.08;;;;;;;14.32;100.00;96626.91;5008918;28;20041;-77
2021/05/16 10:34:28;;;;;;;7.95;1.52;;;;;;;14.32;100.00;96613.28;4997247;28;20053;-78
2021/05/16 10:36:59;;;;;;;9.15;1.55;;;;;;;14.22;100.00;96616.59;4990791;28;20053;-77
2021/05/16 10:39:44;;;;;;;10.65;1.92;;;;;;;14.40;100.00;96611.47;4990659;28;20467;-79
2021/05/16 10:42:17;;;;;;;7.28;1.45;;;;;;;15.61;100.00;96614.78;5008466;28;20038;-78
2021/05/16 10:45:14;;;;;;;5.57;1.17;;;;;;;15.60;100.00;96603.06;5010222;28;20072;-80
2021/05/16 10:47:53;;;;;;;6.47;1.30;;;;;;;17.03;100.00;96614.94;4992843;28;20042;-79
2021/05/16 10:50:23;;;;;;;9.32;1.52;;;;;;;16.61;100.00;96604.47;4995255;28;20050;-78
2021/05/16 10:53:02;;;;;;;4.57;1.13;;;;;;;16.32;100.00;96597.16;4995420;28;20148;-81
2021/05/16 10:55:32;;;;;;;4.88;1.40;;;;;;;17.65;100.00;96593.78;5015379;28;20456;-80
2021/05/16 10:58:02;;;;;;;6.35;1.30;;;;;;;19.26;70.92;96590.31;5010866;28;20070;-77
2021/05/16 11:00:42;;;;;;;5.07;0.98;;;;;;;17.94;78.61;96596.19;5016588;28;20060;-78
2021/05/16 11:03:11;;;;;;;3.28;0.80;;;;;;;17.22;100.00;96606.44;5019717;28;20516;-77
2021/05/16 11:05:41;;;;;;;4.63;1.00;;;;;;;16.27;100.00;96609.22;5009965;28;20512;-81
2021/05/16 11:08:32;;;;;;;3.63;1.10;;;;;;;15.79;100.00;96605.66;5027916;28;20056;-78
2021/05/16 11:11:21;;;;;;;3.45;1.00;;;;;;;15.43;100.00;96601.66;5010799;28;20045;-79
2021/05/16 11:13:48;;;;;;;3.17;0.65;;;;;;;14.85;100.00;96606.72;4992973;28;20042;-78
2021/05/16 11:16:15;;;;;;;5.05;1.00;;;;;;;14.93;100.00;96592.06;5006714;28;20053;-78
2021/05/16 11:18:45;;;;;;;3.88;0.70;;;;;;;15.05;100.00;96601.16;4975760;28;20103;-79
2021/05/16 11:21:14;;;;;;;5.63;1.00;;;;;;;15.80;100.00;96585.34;4993891;28;20529;-77
2021/05/16 11:23:47;;;;;;;5.93;0.88;;;;;;;16.31;100.00;96581.97;4992198;28;20049;-76
2021/05/16 11:26:15;;;;;;;4.50;1.05;;;;;;;16.54;100.00;96593.50;5009696;28;20042;-77
2021/05/16 11:28:50;;;;;;;5.68;1.00;;;;;;;16.27;100.00;96589.31;5009577;28;20227;-78
2021/05/16 11:31:21;;;;;;;4.40;1.00;;;;;;;15.57;100.00;96584.72;5010240;28;20587;-77
2021/05/16 11:33:49;;;;;;;5.65;0.90;;;;;;;15.49;100.00;96586.56;5010232;28;20055;-79
2021/05/16 11:36:18;;;;;;;5.78;1.30;;;;;;;15.71;100.00;96587.63;5010159;28;20540;-79